createdAt,value
2018-11-22T00:02:30.768Z,96267.28
2018-11-22T00:04:57.706Z,96267.08
2018-11-22T00:07:26.275Z,96265.87
2018-11-22T00:10:14.529Z,96258.98
2018-11-22T00:12:43.206Z,96264.75
2018-11-22T00:15:13.601Z,96260.49
2018-11-22T00:18:01.874Z,96261.00
2018-11-22T00:20:30.530Z,96261.42
2018-11-22T00:22:59.249Z,96264.87
2018-11-22T00:25:27.812Z,96258.05
2018-11-22T00:28:16.058Z,96267.59
2018-11-22T00:30:44.732Z,96259.68
2018-11-22T00:33:32.972Z,96260.80
2018-11-22T00:36:01.702Z,96264.87
2018-11-22T00:38:30.381Z,96263.05
2018-11-22T00:40:59.033Z,96268.59
2018-11-22T00:43:47.030Z,96269.41
2018-11-22T00:46:15.732Z,96264.36
2018-11-22T00:48:44.407Z,96264.64
2018-11-22T00:51:32.694Z,96265.27
2018-11-22T00:54:01.429Z,96262.82
2018-11-22T00:56:30.389Z,96274.37
2018-11-22T00:59:18.804Z,96278.63
2018-11-22T01:01:47.344Z,96273.98
2018-11-22T01:04:16.045Z,96274.80
2018-11-22T01:06:44.714Z,96278.86
2018-11-22T01:09:32.979Z,96280.45
2018-11-22T01:12:01.739Z,96279.64
2018-11-22T01:14:30.359Z,96277.12
2018-11-22T01:16:58.992Z,96278.25
2018-11-22T01:19:46.956Z,96280.38
2018-11-22T01:22:15.795Z,96278.05
2018-11-22T01:24:44.418Z,96283.02
2018-11-22T01:27:32.687Z,96276.42
2018-11-22T01:30:01.375Z,96278.75
2018-11-22T01:32:32.567Z,96277.23
2018-11-22T01:35:21.499Z,96277.23
2018-11-22T01:37:50.242Z,96276.00
2018-11-22T01:40:19.983Z,96273.17
2018-11-22T01:43:08.235Z,96268.40
2018-11-22T01:45:36.988Z,96270.22
2018-11-22T01:48:05.719Z,96268.40
2018-11-22T01:50:34.347Z,96271.66
2018-11-22T01:53:22.599Z,96272.78
2018-11-22T01:55:51.230Z,96275.41
2018-11-22T01:58:19.937Z,96274.71
2018-11-22T02:00:48.573Z,96275.53
2018-11-22T02:03:36.836Z,96271.57
2018-11-22T02:06:05.482Z,96272.39
2018-11-22T02:08:34.190Z,96272.78
2018-11-22T02:11:02.794Z,96273.98
2018-11-22T02:13:51.075Z,96274.48
2018-11-22T02:16:19.766Z,96275.11
2018-11-22T02:18:48.442Z,96272.66
2018-11-22T02:21:17.081Z,96276.53
2018-11-22T02:24:05.503Z,96278.67
2018-11-22T02:26:34.233Z,96274.52
2018-11-22T02:29:02.892Z,96269.52
2018-11-22T02:31:31.564Z,96276.11
2018-11-22T02:34:19.849Z,96278.05
2018-11-22T02:36:48.538Z,96279.56
2018-11-22T02:39:17.220Z,96277.55
2018-11-22T02:41:45.878Z,96275.41
2018-11-22T02:44:34.168Z,96277.85
2018-11-22T02:47:02.828Z,96279.98
2018-11-22T02:49:31.426Z,96285.84
2018-11-22T02:52:00.127Z,96282.31
2018-11-22T02:54:48.479Z,96287.39
2018-11-22T02:57:17.082Z,96284.64
2018-11-22T02:59:45.714Z,96286.27
2018-11-22T03:02:14.417Z,96282.52
2018-11-22T03:05:02.637Z,96284.33
2018-11-22T03:07:31.404Z,96287.70
2018-11-22T03:10:00.089Z,96287.98
2018-11-22T03:12:28.749Z,96283.52
2018-11-22T03:15:17.032Z,96287.08
2018-11-22T03:17:45.700Z,96288.70
2018-11-22T03:20:14.402Z,96291.45
2018-11-22T03:22:43.925Z,96287.31
2018-11-22T03:25:32.222Z,96289.22
2018-11-22T03:28:00.957Z,96287.31
2018-11-22T03:30:29.574Z,96291.84
2018-11-22T03:32:58.248Z,96286.27
2018-11-22T03:35:46.494Z,96291.54
2018-11-22T03:38:15.269Z,96297.04
2018-11-22T03:40:44.358Z,96298.86
2018-11-22T03:43:13.070Z,96302.09
2018-11-22T03:46:01.329Z,96302.90
2018-11-22T03:48:30.070Z,96304.53
2018-11-22T03:50:58.693Z,96309.30
2018-11-22T03:53:27.321Z,96304.33
2018-11-22T03:56:15.324Z,96305.95
2018-11-22T03:58:43.986Z,96308.09
2018-11-22T04:01:12.714Z,96307.47
2018-11-22T04:04:00.942Z,96304.84
2018-11-22T04:06:29.703Z,96302.00
2018-11-22T04:08:58.415Z,96303.52
2018-11-22T04:11:27.090Z,96306.16
2018-11-22T04:14:15.307Z,96301.19
2018-11-22T04:16:44.002Z,96303.02
2018-11-22T04:19:12.639Z,96299.17
2018-11-22T04:22:00.584Z,96301.19
2018-11-22T04:24:29.279Z,96303.02
2018-11-22T04:26:57.947Z,96308.48
2018-11-22T04:29:28.937Z,96308.59
2018-11-22T04:32:17.188Z,96310.73
2018-11-22T04:34:45.887Z,96308.09
2018-11-22T04:37:14.631Z,96307.89
2018-11-22T04:39:43.279Z,96305.77
2018-11-22T04:42:31.555Z,96303.44
2018-11-22T04:45:00.200Z,96305.56
2018-11-22T04:47:28.836Z,96310.84
2018-11-22T04:49:57.504Z,96304.45
2018-11-22T04:52:45.776Z,96297.43
2018-11-22T04:55:14.474Z,96293.78
2018-11-22T04:57:43.123Z,96305.65
2018-11-22T05:00:17.014Z,96302.20
2018-11-22T05:02:45.935Z,96300.48
2018-11-22T05:05:33.942Z,96302.81
2018-11-22T05:08:02.569Z,96297.55
2018-11-22T05:10:31.269Z,96299.67
2018-11-22T05:12:59.973Z,96297.63
2018-11-22T05:15:48.258Z,96296.62
2018-11-22T05:18:17.078Z,96296.42
2018-11-22T05:20:45.736Z,96295.30
2018-11-22T05:23:14.412Z,96301.70
2018-11-22T05:26:02.678Z,96297.55
2018-11-22T05:28:31.320Z,96297.23
2018-11-22T05:30:59.997Z,96302.00
2018-11-22T05:33:28.645Z,96303.83
2018-11-22T05:36:16.913Z,96298.86
2018-11-22T05:38:45.620Z,96300.88
2018-11-22T05:41:14.315Z,96309.41
2018-11-22T05:43:43.023Z,96300.69
2018-11-22T05:46:31.247Z,96305.45
2018-11-22T05:48:59.950Z,96307.47
2018-11-22T05:51:28.564Z,96305.95
2018-11-22T05:53:57.223Z,96306.46
2018-11-22T05:56:45.489Z,96304.33
2018-11-22T05:59:14.120Z,96306.97
2018-11-22T06:01:42.784Z,96307.67
2018-11-22T06:04:11.415Z,96313.67
2018-11-22T06:06:59.686Z,96307.97
2018-11-22T06:09:28.344Z,96305.34
2018-11-22T06:11:57.027Z,96310.30
2018-11-22T06:14:25.654Z,96306.97
2018-11-22T06:17:14.006Z,96312.23
2018-11-22T06:19:42.634Z,96308.59
2018-11-22T06:22:11.410Z,96319.45
2018-11-22T06:24:40.013Z,96314.77
2018-11-22T06:27:28.281Z,96315.89
2018-11-22T06:29:56.998Z,96316.89
2018-11-22T06:32:25.654Z,96319.53
2018-11-22T06:34:54.323Z,96326.43
2018-11-22T06:37:42.586Z,96324.11
2018-11-22T06:40:13.655Z,96326.94
2018-11-22T06:42:42.877Z,96331.90
2018-11-22T06:45:16.748Z,96327.75
2018-11-22T06:47:45.444Z,96335.97
2018-11-22T06:50:16.878Z,96334.77
2018-11-22T06:53:03.282Z,96334.77
2018-11-22T06:55:33.538Z,96342.80
2018-11-22T06:58:02.249Z,96344.11
2018-11-22T07:00:32.129Z,96344.70
2018-11-22T07:03:20.384Z,96352.52
2018-11-22T07:05:49.124Z,96359.20
2018-11-22T07:08:37.014Z,96360.13
2018-11-22T07:11:05.935Z,96361.25
2018-11-22T07:13:54.129Z,96367.15
2018-11-22T07:16:22.885Z,96367.45
2018-11-22T07:21:58.687Z,96365.09
2018-11-22T07:24:29.826Z,96365.21
2018-11-22T07:27:20.135Z,96365.33
2018-11-22T07:29:48.956Z,96366.64
2018-11-22T07:32:17.539Z,96363.58
2018-11-22T07:35:06.995Z,96358.62
2018-11-22T07:37:35.688Z,96362.69
2018-11-22T07:40:04.687Z,96364.94
2018-11-22T07:42:35.551Z,96367.06
2018-11-22T07:45:25.432Z,96368.66
2018-11-22T07:47:57.985Z,96366.65
2018-11-22T07:50:26.748Z,96366.84
2018-11-22T07:53:15.035Z,96366.14
2018-11-22T07:55:43.692Z,96365.24
2018-11-22T07:58:12.355Z,96373.27
2018-11-22T08:01:00.644Z,96365.86
2018-11-22T08:03:29.358Z,96367.69
2018-11-22T08:05:57.982Z,96368.08
2018-11-22T08:08:26.675Z,96370.33
2018-11-22T08:11:17.641Z,96371.75
2018-11-22T08:13:46.365Z,96372.14
2018-11-22T08:16:15.034Z,96375.09
2018-11-22T08:18:45.503Z,96374.78
2018-11-22T08:21:38.242Z,96379.05
2018-11-22T08:24:02.482Z,96379.16
2018-11-22T08:26:31.188Z,96378.77
2018-11-22T08:28:59.878Z,96381.99
2018-11-22T08:31:48.126Z,96381.29
2018-11-22T08:34:16.937Z,96387.50
2018-11-22T08:36:45.601Z,96388.00
2018-11-22T08:39:14.235Z,96380.38
2018-11-22T08:42:12.995Z,96380.30
2018-11-22T08:44:43.790Z,96379.59
2018-11-22T08:47:51.372Z,96382.53
2018-11-22T08:50:38.988Z,96380.00
2018-11-22T08:53:07.704Z,96385.16
2018-11-22T08:55:55.714Z,96381.59
2018-11-22T08:58:27.180Z,96386.59
2018-11-22T09:00:58.751Z,96385.28
2018-11-22T09:04:05.924Z,96387.49
2018-11-22T09:06:53.984Z,96392.97
2018-11-22T09:09:24.015Z,96396.55
2018-11-22T09:12:12.225Z,96395.03
2018-11-22T09:14:59.908Z,96398.05
2018-11-22T09:17:29.084Z,96397.85
2018-11-22T09:20:37.314Z,96402.02
2018-11-22T09:23:05.931Z,96401.92
2018-11-22T09:25:37.304Z,96405.18
2018-11-22T09:28:45.013Z,96400.08
2018-11-22T09:31:13.701Z,96401.91
2018-11-22T09:33:42.377Z,96408.81
2018-11-22T09:36:30.610Z,96409.04
2018-11-22T09:38:59.724Z,96407.30
2018-11-22T09:41:28.388Z,96410.86
2018-11-22T09:44:16.582Z,96414.31
2018-11-22T09:46:45.270Z,96417.88
2018-11-22T09:49:16.405Z,96414.61
2018-11-22T09:51:45.200Z,96415.53
2018-11-22T09:57:21.096Z,96408.42
2018-11-22T09:59:49.770Z,96404.86
2018-11-22T10:02:38.039Z,96400.39
2018-11-22T10:05:09.617Z,96402.73
2018-11-22T10:07:38.057Z,96400.28
2018-11-22T10:10:08.255Z,96396.23
2018-11-22T10:12:56.566Z,96396.92
2018-11-22T10:15:27.237Z,96396.22
2018-11-22T10:17:55.923Z,96410.13
2018-11-22T10:20:25.716Z,96404.55
2018-11-22T10:23:13.956Z,96401.80
2018-11-22T10:25:42.684Z,96405.06
2018-11-22T10:28:11.388Z,96406.88
2018-11-22T10:30:40.032Z,96397.95
2018-11-22T10:33:28.284Z,96404.75
2018-11-22T10:35:56.961Z,96401.72
2018-11-22T10:38:26.221Z,96399.88
2018-11-22T10:40:54.864Z,96399.25
2018-11-22T10:43:43.102Z,96396.52
2018-11-22T10:46:11.861Z,96395.78
2018-11-22T10:48:43.223Z,96396.02
2018-11-22T10:54:18.922Z,96396.70
2018-11-22T10:57:06.925Z,96392.94
2018-11-22T10:59:36.059Z,96394.47
2018-11-22T11:02:43.024Z,96398.72
2018-11-22T11:05:30.716Z,96399.53
2018-11-22T11:08:01.605Z,96404.41
2018-11-22T11:10:51.050Z,96391.20
2018-11-22T11:13:19.772Z,96394.33
2018-11-22T11:15:48.397Z,96393.84
2018-11-22T11:18:16.998Z,96389.23
2018-11-22T11:23:34.112Z,96394.19
2018-11-22T11:26:02.805Z,96391.86
2018-11-22T11:28:51.088Z,96394.70
2018-11-22T11:31:19.746Z,96395.62
2018-11-22T11:33:48.374Z,96402.44
2018-11-22T11:36:36.496Z,96397.05
2018-11-22T11:39:08.171Z,96394.19
2018-11-22T11:41:39.781Z,96399.48
2018-11-22T11:44:46.968Z,96396.97
2018-11-22T11:47:18.601Z,96408.05
2018-11-22T11:49:45.494Z,96404.08
2018-11-22T11:52:33.753Z,96406.01
2018-11-22T11:55:02.450Z,96402.56
2018-11-22T11:57:31.249Z,96400.80
2018-11-22T11:59:59.936Z,96404.19
2018-11-22T12:02:50.211Z,96401.11
2018-11-22T12:05:19.980Z,96394.30
2018-11-22T12:07:51.010Z,96395.41
2018-11-22T12:10:39.263Z,96395.11
2018-11-22T12:13:08.082Z,96394.70
2018-11-22T12:15:36.780Z,96394.70
2018-11-22T12:18:05.563Z,96389.92
2018-11-22T12:20:54.048Z,96384.94
2018-11-22T12:23:22.718Z,96388.70
2018-11-22T12:25:51.402Z,96384.81
2018-11-22T12:28:20.037Z,96390.41
2018-11-22T12:31:08.348Z,96388.27
2018-11-22T12:33:42.766Z,96382.78
2018-11-22T12:36:33.758Z,96380.13
2018-11-22T12:39:02.489Z,96382.27
2018-11-22T12:41:31.137Z,96377.49
2018-11-22T12:44:26.045Z,96376.98
2018-11-22T12:46:56.050Z,96373.83
2018-11-22T12:49:24.751Z,96371.48
2018-11-22T12:52:14.132Z,96382.23
2018-11-22T12:54:42.029Z,96374.30
2018-11-22T12:57:10.795Z,96372.78
2018-11-22T12:59:39.376Z,96376.84
2018-11-22T13:02:27.706Z,96367.38
2018-11-22T13:04:56.391Z,96369.89
2018-11-22T13:07:47.327Z,96373.66
2018-11-22T13:10:17.707Z,96365.61
2018-11-22T13:12:47.503Z,96367.41
2018-11-22T13:15:37.803Z,96371.88
2018-11-22T13:18:06.612Z,96367.61
2018-11-22T13:20:35.369Z,96367.71
2018-11-22T13:23:23.613Z,96371.57
2018-11-22T13:25:52.313Z,96367.67
2018-11-22T13:28:21.028Z,96371.73
2018-11-22T13:30:50.102Z,96368.38
2018-11-22T13:33:38.339Z,96372.85
2018-11-22T13:36:07.114Z,96371.63
2018-11-22T13:38:35.706Z,96368.67
2018-11-22T13:41:06.918Z,96372.74
2018-11-22T13:43:55.133Z,96373.25
2018-11-22T13:49:14.524Z,96367.97
2018-11-22T13:52:02.731Z,96375.53
2018-11-22T13:54:31.423Z,96370.25
2018-11-22T13:57:00.105Z,96373.20
2018-11-22T13:59:48.275Z,96380.33
2018-11-22T14:05:26.040Z,96372.84
2018-11-22T14:08:32.981Z,96375.17
2018-11-22T14:11:01.696Z,96369.48
2018-11-22T14:13:32.024Z,96373.14
2018-11-22T14:16:20.332Z,96374.09
2018-11-22T14:18:52.997Z,96381.92
2018-11-22T14:21:22.019Z,96384.95
2018-11-22T14:24:10.296Z,96382.61
2018-11-22T14:27:03.376Z,96384.06
2018-11-22T14:29:32.182Z,96383.76
2018-11-22T14:32:20.538Z,96387.72
2018-11-22T14:35:00.541Z,96382.44
2018-11-22T14:37:27.901Z,96383.55
2018-11-22T14:40:19.684Z,96380.09
2018-11-22T14:42:49.257Z,96388.74
2018-11-22T14:45:18.006Z,96388.13
2018-11-22T14:48:06.125Z,96387.83
2018-11-22T14:50:54.957Z,96385.69
2018-11-22T14:53:23.755Z,96392.74
2018-11-22T14:56:11.725Z,96392.74
2018-11-22T14:59:18.986Z,96391.11
2018-11-22T15:01:47.677Z,96386.84
2018-11-22T15:04:38.496Z,96385.73
2018-11-22T15:07:10.029Z,96388.06
2018-11-22T15:09:38.677Z,96382.67
2018-11-22T15:12:26.931Z,96382.91
2018-11-22T15:15:16.574Z,96382.81
2018-11-22T15:17:48.098Z,96385.15
2018-11-22T15:20:36.365Z,96392.97
2018-11-22T15:23:05.136Z,96386.27
2018-11-22T15:25:33.742Z,96390.77
2018-11-22T15:28:02.418Z,96386.70
2018-11-22T15:30:50.674Z,96390.97
2018-11-22T15:33:19.406Z,96392.39
2018-11-22T15:35:48.050Z,96391.70
2018-11-22T15:38:16.721Z,96389.27
2018-11-22T15:41:05.144Z,96390.48
2018-11-22T15:43:46.385Z,96395.66
2018-11-22T15:46:17.561Z,96389.77
2018-11-22T15:49:05.755Z,96402.47
2018-11-22T15:51:34.493Z,96406.73
2018-11-22T15:54:03.183Z,96404.91
2018-11-22T15:56:51.435Z,96408.27
2018-11-22T15:59:20.108Z,96409.30
2018-11-22T16:01:50.989Z,96404.53
2018-11-22T16:04:19.633Z,96408.49
2018-11-22T16:07:07.860Z,96410.63
2018-11-22T16:09:36.542Z,96421.70
2018-11-22T16:12:44.320Z,96417.02
2018-11-22T16:15:37.708Z,96418.03
2018-11-22T16:18:06.703Z,96420.67
2018-11-22T16:20:54.970Z,96430.73
2018-11-22T16:23:25.835Z,96426.97
2018-11-22T16:25:54.469Z,96426.16
2018-11-22T16:28:23.164Z,96435.91
2018-11-22T16:31:11.485Z,96431.95
2018-11-22T16:33:40.160Z,96428.22
2018-11-22T16:39:08.988Z,96439.30
2018-11-22T16:44:27.891Z,96429.52
2018-11-22T16:47:15.829Z,96431.05
2018-11-22T16:49:44.587Z,96434.73
2018-11-22T16:52:13.188Z,96433.91
2018-11-22T16:55:24.457Z,96436.87
2018-11-22T16:57:56.716Z,96430.77
2018-11-22T17:00:27.239Z,96431.98
2018-11-22T17:03:15.493Z,96436.45
2018-11-22T17:05:45.011Z,96432.38
2018-11-22T17:08:16.182Z,96436.34
2018-11-22T17:10:44.837Z,96435.52
2018-11-22T17:13:33.127Z,96441.82
2018-11-22T17:16:02.056Z,96440.81
2018-11-22T17:18:52.810Z,96439.38
2018-11-22T17:21:19.691Z,96434.91
2018-11-22T17:23:48.370Z,96438.59
2018-11-22T17:26:36.606Z,96435.14
2018-11-22T17:29:05.379Z,96438.88
2018-11-22T17:31:36.506Z,96437.35
2018-11-22T17:34:07.664Z,96432.27
2018-11-22T17:36:55.965Z,96429.86
2018-11-22T17:42:12.641Z,96431.17
2018-11-22T17:45:04.379Z,96431.99
2018-11-22T17:47:31.851Z,96423.96
2018-11-22T17:50:00.418Z,96420.50
2018-11-22T17:52:48.873Z,96422.13
2018-11-22T17:58:24.624Z,96423.74
2018-11-22T18:01:31.856Z,96420.80
2018-11-22T18:04:03.635Z,96420.91
2018-11-22T18:06:34.802Z,96419.08
2018-11-22T18:09:23.094Z,96423.23
2018-11-22T18:14:53.315Z,96422.42
2018-11-22T18:17:41.334Z,96416.33
2018-11-22T18:20:30.456Z,96421.84
2018-11-22T18:26:20.162Z,96419.39
2018-11-22T18:28:48.891Z,96413.30
2018-11-22T18:31:39.278Z,96420.52
2018-11-22T18:34:07.950Z,96421.30
2018-11-22T18:36:36.636Z,96417.27
2018-11-22T18:39:07.858Z,96426.20
2018-11-22T18:41:56.110Z,96424.56
2018-11-22T18:44:24.877Z,96418.78
2018-11-22T18:46:53.516Z,96418.78
2018-11-22T18:49:22.200Z,96418.16
2018-11-22T18:52:10.402Z,96422.94
2018-11-22T18:54:54.920Z,96420.80
2018-11-22T18:57:23.622Z,96418.86
2018-11-22T19:00:35.206Z,96420.30
2018-11-22T19:03:05.530Z,96418.16
2018-11-22T19:05:34.283Z,96417.27
2018-11-22T19:08:23.673Z,96416.64
2018-11-22T19:10:51.187Z,96412.69
2018-11-22T19:16:19.185Z,96416.64
2018-11-22T19:19:06.830Z,96417.66
2018-11-22T19:21:40.974Z,96414.52
2018-11-22T19:24:06.818Z,96427.71
2018-11-22T19:26:35.660Z,96427.41
2018-11-22T19:29:04.287Z,96428.22
2018-11-22T19:31:52.518Z,96427.41
2018-11-22T19:34:21.217Z,96437.45
2018-11-22T19:36:49.847Z,96430.86
2018-11-22T19:39:38.144Z,96431.36
2018-11-22T19:42:06.862Z,96428.02
2018-11-22T19:44:38.287Z,96435.94
2018-11-22T19:47:26.679Z,96428.84
2018-11-22T19:50:18.937Z,96433.80
2018-11-22T19:52:48.456Z,96429.73
2018-11-22T19:55:37.504Z,96433.39
2018-11-22T19:58:10.104Z,96427.91
2018-11-22T20:00:37.617Z,96431.16
2018-11-22T20:03:28.534Z,96428.22
2018-11-22T20:05:59.741Z,96433.39
2018-11-22T20:08:28.436Z,96441.31
2018-11-22T20:11:18.286Z,96437.55
2018-11-22T20:13:46.941Z,96438.87
2018-11-22T20:16:15.809Z,96440.19
2018-11-22T20:18:46.840Z,96446.51
2018-11-22T20:21:36.276Z,96447.52
2018-11-22T20:24:03.941Z,96454.12
2018-11-22T20:26:52.253Z,96453.30
2018-11-22T20:29:21.193Z,96457.46
2018-11-22T20:32:09.106Z,96458.08
2018-11-22T20:34:48.012Z,96460.72
2018-11-22T20:37:16.774Z,96462.34
2018-11-22T20:40:05.014Z,96461.62
2018-11-22T20:48:13.034Z,96458.16
2018-11-22T20:50:41.706Z,96459.48
2018-11-22T20:53:32.049Z,96459.40
2018-11-22T20:55:59.778Z,96461.03
2018-11-22T20:58:46.965Z,96458.59
2018-11-22T21:01:15.690Z,96463.55
2018-11-22T21:03:44.325Z,96469.14
2018-11-22T21:06:13.088Z,96466.59
2018-11-22T21:09:01.355Z,96467.20
2018-11-22T21:11:29.985Z,96460.30
2018-11-22T21:13:58.676Z,96464.45
2018-11-22T21:19:34.548Z,96465.27
2018-11-22T21:22:03.275Z,96460.80
2018-11-22T21:24:51.530Z,96467.91
2018-11-22T21:27:20.156Z,96478.47
2018-11-22T21:29:48.795Z,96469.93
2018-11-22T21:32:17.445Z,96470.05
2018-11-22T21:35:08.751Z,96465.77
2018-11-22T21:37:57.621Z,96463.44
2018-11-22T21:40:26.897Z,96465.07
2018-11-22T21:43:34.158Z,96468.64
2018-11-22T21:46:21.849Z,96469.84
2018-11-22T21:48:50.501Z,96472.59
2018-11-22T21:51:39.507Z,96468.64
2018-11-22T21:54:07.118Z,96472.41
2018-11-22T21:56:35.773Z,96471.78
2018-11-22T21:59:24.025Z,96475.23
2018-11-22T22:04:59.677Z,96476.95
2018-11-22T22:08:07.029Z,96469.03
2018-11-22T22:10:35.789Z,96468.22
2018-11-22T22:13:04.508Z,96468.92
2018-11-22T22:15:52.767Z,96475.02
2018-11-22T22:18:21.434Z,96468.41
2018-11-22T22:20:50.079Z,96467.09
2018-11-22T22:23:20.920Z,96465.38
2018-11-22T22:26:09.205Z,96461.92
2018-11-22T22:28:37.907Z,96463.25
2018-11-22T22:31:06.600Z,96467.20
2018-11-22T22:33:37.818Z,96473.50
2018-11-22T22:36:26.048Z,96463.13
2018-11-22T22:38:54.826Z,96475.13
2018-11-22T22:41:23.487Z,96474.81
2018-11-22T22:43:52.156Z,96464.14
2018-11-22T22:46:47.925Z,96470.24
2018-11-22T22:49:18.737Z,96469.93
2018-11-22T22:51:51.936Z,96475.72
2018-11-22T22:54:42.213Z,96472.17
2018-11-22T22:57:10.924Z,96476.33
2018-11-22T22:59:39.572Z,96478.16
2018-11-22T23:02:27.826Z,96479.87
2018-11-22T23:04:56.442Z,96472.95
2018-11-22T23:07:25.148Z,96479.48
2018-11-22T23:10:13.113Z,96473.08
2018-11-22T23:12:41.744Z,96467.80
2018-11-22T23:15:13.068Z,96478.74
2018-11-22T23:17:42.070Z,96466.78
2018-11-22T23:20:49.254Z,96473.19
2018-11-22T23:23:17.895Z,96470.02
2018-11-22T23:25:46.566Z,96471.86
2018-11-22T23:28:34.828Z,96476.53
2018-11-22T23:31:03.514Z,96468.30
2018-11-22T23:33:32.197Z,96474.39
2018-11-22T23:36:00.867Z,96466.47
2018-11-22T23:38:49.095Z,96470.94
2018-11-22T23:41:17.813Z,96466.78
2018-11-22T23:43:46.559Z,96463.72
2018-11-22T23:46:15.231Z,96473.58
2018-11-22T23:49:03.234Z,96466.36
2018-11-22T23:51:31.938Z,96462.31
2018-11-22T23:54:00.687Z,96465.97
2018-11-22T23:56:48.971Z,96465.04
2018-11-22T23:59:17.662Z,96468.69
